Accueil
METAR-TAF:

METAR-TAF

Aéroports :

Passo Rolle, Italie

latitude: 46-18N, longitude: 011-47E, altitude: 2004 m

Observation

Le bulletin a été fait il y a 26 minutes, à 10:55 UTC
Vent 20 kt de sud/sud-est avec des rafales jusqu'à 30 kt
Température -1°C
Humidité 86%
Pression 1012 hPa
Visibilité: 0200 m
brouillard givrant

METAR: LIVR 251055Z 16020G30KT 0200 FZFG VV/// M01/M03 Q1012 RMK MON INVIS VIS MIN 0200

Heure: 12:21 (11:21 UTC)


TAF: absent

Observations et prévisions météorologiques de plus de 4000 aéroports (messages METAR et TAF).

Les stations disponibles sont représentées par des disques jaunes et rouges sur la carte.

Passer la souris dessus pour voir le nom de la station.

Cliquer dessus pour voir les observations et prévisions météorologiques.

Pour changer de carte: cliquez sur les boutons verts avec une croix noire pour zoomer, sur le bouton vert avec un tiret pour effectuer un zoom arrière, ou sur les flèches vertes pour les cartes adjacentes.


METAR-TAF: